sensor_id;sensor_type;location;lat;lon;timestamp;P1;durP1;ratioP1;P2;durP2;ratioP2
35243;SDS011;37916;52.160;21.066;2022-08-03T00:06:01;9.50;;;7.63;;
35243;SDS011;37916;52.160;21.066;2022-08-03T00:16:02;11.90;;;9.00;;
35243;SDS011;37916;52.160;21.066;2022-08-03T00:26:03;11.63;;;9.23;;
35243;SDS011;37916;52.160;21.066;2022-08-03T00:36:06;12.85;;;9.20;;
35243;SDS011;37916;52.160;21.066;2022-08-03T00:46:07;10.55;;;8.35;;
35243;SDS011;37916;52.160;21.066;2022-08-03T00:56:08;12.68;;;9.77;;
35243;SDS011;37916;52.160;21.066;2022-08-03T01:16:21;15.95;;;10.50;;
35243;SDS011;37916;52.160;21.066;2022-08-03T01:36:48;17.35;;;10.50;;
35243;SDS011;37916;52.160;21.066;2022-08-03T01:46:52;12.90;;;8.85;;
35243;SDS011;37916;52.160;21.066;2022-08-03T01:56:55;14.93;;;9.70;;
35243;SDS011;37916;52.160;21.066;2022-08-03T02:17:00;11.48;;;9.40;;
35243;SDS011;37916;52.160;21.066;2022-08-03T02:27:01;11.02;;;9.93;;
35243;SDS011;37916;52.160;21.066;2022-08-03T02:37:09;13.50;;;10.05;;
35243;SDS011;37916;52.160;21.066;2022-08-03T02:47:12;14.85;;;10.50;;
35243;SDS011;37916;52.160;21.066;2022-08-03T02:57:14;13.25;;;9.68;;
35243;SDS011;37916;52.160;21.066;2022-08-03T03:07:15;14.18;;;11.20;;
35243;SDS011;37916;52.160;21.066;2022-08-03T03:17:17;13.40;;;9.98;;
35243;SDS011;37916;52.160;21.066;2022-08-03T03:27:22;14.15;;;10.52;;
35243;SDS011;37916;52.160;21.066;2022-08-03T03:37:22;12.10;;;10.23;;
35243;SDS011;37916;52.160;21.066;2022-08-03T03:47:27;12.10;;;9.90;;
35243;SDS011;37916;52.160;21.066;2022-08-03T03:57:28;13.90;;;11.60;;
35243;SDS011;37916;52.160;21.066;2022-08-03T04:07:30;15.45;;;12.15;;
35243;SDS011;37916;52.160;21.066;2022-08-03T04:17:58;15.25;;;12.65;;
35243;SDS011;37916;52.160;21.066;2022-08-03T04:28:02;15.25;;;13.48;;
35243;SDS011;37916;52.160;21.066;2022-08-03T04:38:05;15.65;;;13.55;;
35243;SDS011;37916;52.160;21.066;2022-08-03T04:48:07;17.97;;;15.27;;
35243;SDS011;37916;52.160;21.066;2022-08-03T04:58:08;17.63;;;15.68;;
35243;SDS011;37916;52.160;21.066;2022-08-03T05:08:08;18.27;;;16.30;;
35243;SDS011;37916;52.160;21.066;2022-08-03T05:18:12;19.13;;;17.10;;
35243;SDS011;37916;52.160;21.066;2022-08-03T05:28:13;20.37;;;18.37;;
35243;SDS011;37916;52.160;21.066;2022-08-03T05:38:19;21.60;;;18.23;;
35243;SDS011;37916;52.160;21.066;2022-08-03T05:48:22;19.00;;;17.10;;
35243;SDS011;37916;52.160;21.066;2022-08-03T05:58:23;18.88;;;17.00;;
35243;SDS011;37916;52.160;21.066;2022-08-03T06:08:24;19.17;;;17.10;;
35243;SDS011;37916;52.160;21.066;2022-08-03T06:18:27;19.15;;;17.35;;
35243;SDS011;37916;52.160;21.066;2022-08-03T06:28:30;17.17;;;15.68;;
35243;SDS011;37916;52.160;21.066;2022-08-03T06:38:36;18.23;;;16.40;;
35243;SDS011;37916;52.160;21.066;2022-08-03T06:48:39;17.33;;;15.32;;
35243;SDS011;37916;52.160;21.066;2022-08-03T06:58:40;17.48;;;15.50;;
35243;SDS011;37916;52.160;21.066;2022-08-03T07:08:41;18.75;;;15.50;;
35243;SDS011;37916;52.160;21.066;2022-08-03T07:18:42;15.37;;;13.83;;
35243;SDS011;37916;52.160;21.066;2022-08-03T07:28:42;16.08;;;13.05;;
35243;SDS011;37916;52.160;21.066;2022-08-03T07:38:46;16.33;;;14.10;;
35243;SDS011;37916;52.160;21.066;2022-08-03T07:48:51;15.23;;;12.20;;
35243;SDS011;37916;52.160;21.066;2022-08-03T07:58:52;14.43;;;12.00;;
35243;SDS011;37916;52.160;21.066;2022-08-03T08:08:53;11.65;;;10.45;;
35243;SDS011;37916;52.160;21.066;2022-08-03T08:19:00;11.18;;;9.60;;
35243;SDS011;37916;52.160;21.066;2022-08-03T08:29:01;9.52;;;7.72;;
35243;SDS011;37916;52.160;21.066;2022-08-03T08:39:02;7.78;;;4.85;;
35243;SDS011;37916;52.160;21.066;2022-08-03T08:49:03;10.45;;;5.95;;
35243;SDS011;37916;52.160;21.066;2022-08-03T08:59:08;4.70;;;3.20;;
35243;SDS011;37916;52.160;21.066;2022-08-03T09:09:09;7.40;;;4.35;;
35243;SDS011;37916;52.160;21.066;2022-08-03T09:19:11;7.03;;;4.32;;
35243;SDS011;37916;52.160;21.066;2022-08-03T09:29:13;4.00;;;3.60;;
35243;SDS011;37916;52.160;21.066;2022-08-03T09:49:17;4.47;;;3.40;;
35243;SDS011;37916;52.160;21.066;2022-08-03T09:59:24;6.40;;;3.97;;
35243;SDS011;37916;52.160;21.066;2022-08-03T10:09:26;5.50;;;4.03;;
35243;SDS011;37916;52.160;21.066;2022-08-03T10:19:27;6.27;;;3.87;;
35243;SDS011;37916;52.160;21.066;2022-08-03T10:29:28;10.27;;;7.23;;
35243;SDS011;37916;52.160;21.066;2022-08-03T10:39:37;6.85;;;5.32;;
35243;SDS011;37916;52.160;21.066;2022-08-03T10:49:52;7.07;;;5.30;;
35243;SDS011;37916;52.160;21.066;2022-08-03T11:09:53;6.80;;;4.63;;
35243;SDS011;37916;52.160;21.066;2022-08-03T11:19:55;6.38;;;5.00;;
35243;SDS011;37916;52.160;21.066;2022-08-03T11:30:04;6.17;;;5.10;;
35243;SDS011;37916;52.160;21.066;2022-08-03T11:40:31;8.15;;;4.75;;
35243;SDS011;37916;52.160;21.066;2022-08-03T11:50:37;8.37;;;4.97;;
35243;SDS011;37916;52.160;21.066;2022-08-03T12:00:38;8.05;;;5.72;;
35243;SDS011;37916;52.160;21.066;2022-08-03T12:10:48;6.57;;;5.50;;
35243;SDS011;37916;52.160;21.066;2022-08-03T12:21:03;5.70;;;4.82;;
35243;SDS011;37916;52.160;21.066;2022-08-03T12:31:10;6.53;;;4.90;;
35243;SDS011;37916;52.160;21.066;2022-08-03T12:41:12;7.50;;;5.80;;
35243;SDS011;37916;52.160;21.066;2022-08-03T12:51:14;8.75;;;5.15;;
35243;SDS011;37916;52.160;21.066;2022-08-03T13:01:15;6.45;;;5.13;;
35243;SDS011;37916;52.160;21.066;2022-08-03T13:11:23;6.23;;;4.77;;
35243;SDS011;37916;52.160;21.066;2022-08-03T13:21:25;6.43;;;5.00;;
35243;SDS011;37916;52.160;21.066;2022-08-03T13:31:26;5.23;;;4.70;;
35243;SDS011;37916;52.160;21.066;2022-08-03T13:41:28;9.10;;;4.83;;
35243;SDS011;37916;52.160;21.066;2022-08-03T13:51:28;6.03;;;5.10;;
35243;SDS011;37916;52.160;21.066;2022-08-03T14:01:29;8.55;;;4.88;;
35243;SDS011;37916;52.160;21.066;2022-08-03T14:11:33;4.60;;;4.20;;
35243;SDS011;37916;52.160;21.066;2022-08-03T14:21:34;6.75;;;4.55;;
35243;SDS011;37916;52.160;21.066;2022-08-03T14:31:36;4.83;;;4.30;;
35243;SDS011;37916;52.160;21.066;2022-08-03T14:41:41;10.63;;;5.07;;
35243;SDS011;37916;52.160;21.066;2022-08-03T14:51:43;7.13;;;4.23;;
35243;SDS011;37916;52.160;21.066;2022-08-03T15:01:43;6.23;;;4.63;;
35243;SDS011;37916;52.160;21.066;2022-08-03T15:11:44;5.47;;;4.93;;
35243;SDS011;37916;52.160;21.066;2022-08-03T15:21:48;4.87;;;4.37;;
35243;SDS011;37916;52.160;21.066;2022-08-03T15:31:55;4.47;;;4.07;;
35243;SDS011;37916;52.160;21.066;2022-08-03T15:41:58;10.45;;;4.63;;
35243;SDS011;37916;52.160;21.066;2022-08-03T15:51:59;4.73;;;4.33;;
35243;SDS011;37916;52.160;21.066;2022-08-03T16:02:00;5.13;;;4.30;;
35243;SDS011;37916;52.160;21.066;2022-08-03T16:12:06;7.37;;;5.00;;
35243;SDS011;37916;52.160;21.066;2022-08-03T16:22:08;5.10;;;4.50;;
35243;SDS011;37916;52.160;21.066;2022-08-03T16:32:09;4.97;;;4.33;;
35243;SDS011;37916;52.160;21.066;2022-08-03T16:42:09;7.47;;;4.73;;
35243;SDS011;37916;52.160;21.066;2022-08-03T16:52:10;6.07;;;4.95;;
35243;SDS011;37916;52.160;21.066;2022-08-03T17:02:24;5.47;;;4.85;;
35243;SDS011;37916;52.160;21.066;2022-08-03T17:12:29;6.78;;;6.18;;
35243;SDS011;37916;52.160;21.066;2022-08-03T17:22:30;5.53;;;5.03;;
35243;SDS011;37916;52.160;21.066;2022-08-03T17:32:35;6.45;;;5.03;;
35243;SDS011;37916;52.160;21.066;2022-08-03T17:42:45;7.38;;;5.22;;
35243;SDS011;37916;52.160;21.066;2022-08-03T17:52:47;6.88;;;5.18;;
35243;SDS011;37916;52.160;21.066;2022-08-03T18:13:29;5.78;;;5.13;;
35243;SDS011;37916;52.160;21.066;2022-08-03T18:23:40;7.93;;;5.50;;
35243;SDS011;37916;52.160;21.066;2022-08-03T18:33:49;7.20;;;6.10;;
35243;SDS011;37916;52.160;21.066;2022-08-03T18:43:52;7.43;;;6.70;;
35243;SDS011;37916;52.160;21.066;2022-08-03T18:54:06;7.88;;;6.15;;
35243;SDS011;37916;52.160;21.066;2022-08-03T19:04:19;8.40;;;6.68;;
35243;SDS011;37916;52.160;21.066;2022-08-03T19:14:42;8.98;;;7.00;;
35243;SDS011;37916;52.160;21.066;2022-08-03T19:24:47;9.93;;;6.72;;
35243;SDS011;37916;52.160;21.066;2022-08-03T19:34:56;9.88;;;6.82;;
35243;SDS011;37916;52.160;21.066;2022-08-03T19:45:03;11.70;;;9.45;;
35243;SDS011;37916;52.160;21.066;2022-08-03T19:55:07;11.38;;;9.88;;
35243;SDS011;37916;52.160;21.066;2022-08-03T20:05:09;10.50;;;7.78;;
35243;SDS011;37916;52.160;21.066;2022-08-03T20:15:11;10.80;;;8.23;;
35243;SDS011;37916;52.160;21.066;2022-08-03T20:25:12;11.07;;;8.43;;
35243;SDS011;37916;52.160;21.066;2022-08-03T20:35:15;11.20;;;7.78;;
35243;SDS011;37916;52.160;21.066;2022-08-03T20:45:16;9.80;;;6.97;;
35243;SDS011;37916;52.160;21.066;2022-08-03T20:55:19;14.57;;;9.55;;
35243;SDS011;37916;52.160;21.066;2022-08-03T21:05:20;11.50;;;10.13;;
35243;SDS011;37916;52.160;21.066;2022-08-03T21:15:28;11.32;;;10.23;;
35243;SDS011;37916;52.160;21.066;2022-08-03T21:25:31;13.38;;;10.57;;
35243;SDS011;37916;52.160;21.066;2022-08-03T21:35:32;12.70;;;11.38;;
35243;SDS011;37916;52.160;21.066;2022-08-03T21:45:34;14.57;;;12.05;;
35243;SDS011;37916;52.160;21.066;2022-08-03T21:55:49;16.63;;;12.88;;
35243;SDS011;37916;52.160;21.066;2022-08-03T22:05:56;13.38;;;11.57;;
35243;SDS011;37916;52.160;21.066;2022-08-03T22:15:58;21.53;;;12.30;;
35243;SDS011;37916;52.160;21.066;2022-08-03T22:26:00;12.32;;;10.52;;
35243;SDS011;37916;52.160;21.066;2022-08-03T22:36:06;12.73;;;10.82;;
35243;SDS011;37916;52.160;21.066;2022-08-03T22:46:12;11.82;;;9.93;;
35243;SDS011;37916;52.160;21.066;2022-08-03T22:56:15;13.57;;;9.03;;
35243;SDS011;37916;52.160;21.066;2022-08-03T23:16:20;12.23;;;8.65;;
35243;SDS011;37916;52.160;21.066;2022-08-03T23:26:23;13.23;;;9.15;;
35243;SDS011;37916;52.160;21.066;2022-08-03T23:36:25;11.13;;;9.03;;
35243;SDS011;37916;52.160;21.066;2022-08-03T23:46:26;10.90;;;9.73;;
